»·PEaware :: N739HH KMHV-KSBD

N739HH :: KMHV-KSBD

FLIGHT INFORMATION

Flight Status: Arrived
Operator: Privately registered:
United States
More flights under this callsign
Pilot: Zuqi C. (19949)
Aircraft: CESSNA 172 SKYHAWK
(C172)
More flights by this aircraft type
Origin: KMHV Mojave
United States
Destination: KSBD San Bernardino Intl
United States
More flights between these airports :: More routes between these airports
Route:
File this flight plan on PilotEdge
Remarks:
Altitude:
(Current/Filed)
5,500ft
Speed:
(Current/Filed)
110kts
Departed: 11-Aug-18 12:24 PM
Arrived: 11-Aug-18 01:15 PM
Distance/Time
Traveled:
73nm/0:51
Distance/Time
To Go:
Arrived

Flight Plot

Page will automatically refresh every two minutes.

Flight plan parsing failed; only flown route is shown


Map Options




Map Legend


Flown Route
Filed Route
Departure Airport
Arrival Airport
Navaid (VOR, NDB)
Fix

Horizontal Profiles

Position Reports

Time Latitude Longitude Heading Altitude Ground
Speed
11-Aug-18 12:03 35.056704 -118.153296 183 2753ft 0kts
11-Aug-18 12:04 35.056704 -118.153296 183 2753ft 0kts
11-Aug-18 12:05 35.056704 -118.153296 183 2753ft 0kts
11-Aug-18 12:06 35.056704 -118.153296 183 2753ft 0kts
11-Aug-18 12:07 35.056704 -118.153296 183 2753ft 0kts
11-Aug-18 12:08 35.056704 -118.153296 183 2753ft 0kts
11-Aug-18 12:09 35.056704 -118.153296 183 2753ft 0kts
11-Aug-18 12:10 35.056704 -118.153296 183 2753ft 0kts
11-Aug-18 12:11 35.056704 -118.153296 183 2753ft 0kts
11-Aug-18 12:12 35.056851 -118.153200 30 2753ft 3kts
11-Aug-18 12:13 35.057018 -118.153101 7 2753ft 0kts
11-Aug-18 12:14 35.057018 -118.153101 7 2753ft 0kts
11-Aug-18 12:15 35.057018 -118.153101 7 2753ft 0kts
11-Aug-18 12:16 35.057056 -118.153092 12 2753ft 1kts
11-Aug-18 12:17 35.057586 -118.149886 86 2745ft 23kts
11-Aug-18 12:18 35.057766 -118.143491 87 2733ft 7kts
11-Aug-18 12:19 35.057566 -118.142841 82 2730ft 6kts
11-Aug-18 12:20 35.058199 -118.142650 255 2731ft 0kts
11-Aug-18 12:21 35.058199 -118.142650 255 2731ft 0kts
11-Aug-18 12:22 35.058330 -118.142614 354 2731ft 7kts
11-Aug-18 12:23 35.058430 -118.142621 358 2731ft 0kts
11-Aug-18 12:24 35.058430 -118.142621 358 2731ft 0kts
11-Aug-18 12:25 35.059192 -118.148393 270 2789ft 63kts
11-Aug-18 12:26 35.058518 -118.171593 264 3445ft 73kts
11-Aug-18 12:27 35.040665 -118.171609 166 4097ft 86kts
11-Aug-18 12:28 35.019232 -118.166309 178 4715ft 85kts
11-Aug-18 12:29 34.997246 -118.156821 167 5276ft 84kts
11-Aug-18 12:30 34.973941 -118.153056 189 5484ft 91kts
11-Aug-18 12:31 34.947550 -118.157525 190 5516ft 98kts
11-Aug-18 12:32 34.921246 -118.160183 192 5637ft 96kts
11-Aug-18 12:33 34.895699 -118.167444 185 5730ft 96kts
11-Aug-18 12:34 34.864802 -118.165515 182 5439ft 111kts
11-Aug-18 12:35 34.834441 -118.167281 187 5388ft 110kts
11-Aug-18 12:36 34.805671 -118.168123 184 5534ft 101kts
11-Aug-18 12:37 34.780453 -118.153897 163 5558ft 107kts
11-Aug-18 12:38 34.754007 -118.165383 194 5617ft 101kts
11-Aug-18 12:39 34.725472 -118.163229 164 5521ft 110kts
11-Aug-18 12:40 34.701147 -118.142889 141 5501ft 105kts
11-Aug-18 12:41 34.684803 -118.113167 115 5493ft 106kts
11-Aug-18 12:42 34.673105 -118.081045 127 5564ft 103kts
11-Aug-18 12:43 34.658059 -118.050933 129 5609ft 105kts
11-Aug-18 12:44 34.642420 -118.021664 128 5704ft 103kts
11-Aug-18 12:45 34.626280 -117.992527 127 5729ft 107kts
11-Aug-18 12:46 34.614487 -117.959408 95 5770ft 112kts
11-Aug-18 12:47 34.606971 -117.925757 123 5839ft 109kts
11-Aug-18 12:48 34.594145 -117.890860 128 5821ft 111kts
11-Aug-18 12:49 34.569013 -117.867808 150 5670ft 113kts
11-Aug-18 12:50 34.543286 -117.844133 144 5502ft 116kts
11-Aug-18 12:51 34.518447 -117.820472 144 5523ft 108kts
11-Aug-18 12:52 34.503044 -117.788701 105 5565ft 113kts
11-Aug-18 12:53 34.488410 -117.754865 123 5575ft 113kts
11-Aug-18 12:54 34.475289 -117.719921 108 5640ft 111kts
11-Aug-18 12:55 34.460397 -117.686545 117 5659ft 112kts
11-Aug-18 12:56 34.445123 -117.653818 119 5683ft 111kts
11-Aug-18 12:57 34.428446 -117.622448 118 5625ft 110kts
11-Aug-18 12:58 34.413530 -117.590575 119 5559ft 103kts
11-Aug-18 12:59 34.396786 -117.562346 144 5630ft 100kts
11-Aug-18 13:00 34.371452 -117.545096 150 5681ft 105kts
11-Aug-18 13:01 34.347838 -117.523888 138 5906ft 106kts
11-Aug-18 13:02 34.323802 -117.502325 144 5939ft 109kts
11-Aug-18 13:03 34.299360 -117.482350 146 5834ft 102kts
11-Aug-18 13:04 34.276143 -117.460458 146 5469ft 106kts
11-Aug-18 13:05 34.252555 -117.440404 138 5122ft 104kts
11-Aug-18 13:06 34.232087 -117.415590 135 5066ft 105kts
11-Aug-18 13:07 34.212937 -117.389789 139 5023ft 100kts
11-Aug-18 13:08 34.194149 -117.364994 133 4709ft 100kts
11-Aug-18 13:09 34.170342 -117.351891 171 3924ft 93kts
11-Aug-18 13:10 34.148322 -117.340484 125 3060ft 97kts
11-Aug-18 13:11 34.134573 -117.314744 132 2408ft 91kts
11-Aug-18 13:12 34.116466 -117.294844 148 1886ft 84kts
11-Aug-18 13:13 34.098813 -117.282056 139 1648ft 73kts
11-Aug-18 13:14 34.086145 -117.266808 75 1339ft 68kts
11-Aug-18 13:15 34.092238 -117.245286 67 1093ft 51kts
11-Aug-18 13:16 34.094116 -117.242038 1 1099ft 0kts
11-Aug-18 13:17 34.094125 -117.242037 2 1099ft 1kts
11-Aug-18 13:18 34.096956 -117.241968 357 1099ft 19kts
11-Aug-18 13:19 34.101847 -117.242514 330 1102ft 18kts
11-Aug-18 13:20 34.104138 -117.244741 295 1100ft 13kts
11-Aug-18 13:21 34.104411 -117.245598 284 1098ft 0kts
11-Aug-18 13:22 34.104411 -117.245598 284 1098ft 0kts
11-Aug-18 13:23 34.104411 -117.245598 284 1098ft 0kts
11-Aug-18 13:24 34.104411 -117.245598 284 1098ft 0kts
11-Aug-18 13:25 34.104411 -117.245598 284 1098ft 0kts

Navigation Log

Ident Type
Flight plan parsing failed, navigation log unavailable